LFQQ/LIL METAR and TAF weather

Enter ICAO airport designator
Station Type Date Time Source
LFQQ METAR 2022/05/26 04:00 UTC NOAA

LFQQ 260400Z AUTO 24006KT CAVOK 12/11 Q1021 TEMPO 3000 DZ OVC007


Station Type Date Time Source
LFQQ Decoded METAR 2022/05/26 04:00 UTC NOAA

Lille, France (LFQQ) 50-34N 003-06E 52M
May 26, 2022 - 12:00 AM EDT / 2022.05.26 0400 UTC
Wind: from the WSW (240 degrees) at 7 MPH (6 KT):0
Visibility: greater than 7 mile(s):0
Temperature: 53 F (12 C)
Dew Point: 51 F (11 C)
Relative Humidity: 93%
Pressure (altimeter): 30.15 in. Hg (1021 hPa)
ob: LFQQ 260400Z AUTO 24006KT CAVOK 12/11 Q1021 TEMPO 3000 DZ OVC007
cycle: 4

Station Type Date Time Source
LFQQ TAF 2022/05/25 20:28 UTC NOAA

TAF
AMD LFQQ 252018Z 2520/2624 24015KT 9999 OVC017
TEMPO 2520/2606 3000 DZ OVC007
TEMPO 2612/2620 24015G25KT

Example: see airport list